sensor_id;sensor_type;location;lat;lon;timestamp;P1;durP1;ratioP1;P2;durP2;ratioP2
50591;SDS011;36548;50.506;30.834;2022-09-09T00:02:11;8.87;;;4.80;;
50591;SDS011;36548;50.506;30.834;2022-09-09T00:05:37;6.08;;;4.82;;
50591;SDS011;36548;50.506;30.834;2022-09-09T00:11:32;5.40;;;4.58;;
50591;SDS011;36548;50.506;30.834;2022-09-09T00:12:53;6.42;;;4.50;;
50591;SDS011;36548;50.506;30.834;2022-09-09T00:14:18;5.25;;;4.70;;
50591;SDS011;36548;50.506;30.834;2022-09-09T00:15:46;5.93;;;4.47;;
50591;SDS011;36548;50.506;30.834;2022-09-09T00:17:21;6.10;;;4.75;;
50591;SDS011;36548;50.506;30.834;2022-09-09T00:21:57;5.62;;;4.82;;
50591;SDS011;36548;50.506;30.834;2022-09-09T00:23:28;6.15;;;4.65;;
50591;SDS011;36548;50.506;30.834;2022-09-09T00:27:49;6.92;;;4.70;;
50591;SDS011;36548;50.506;30.834;2022-09-09T00:29:14;5.35;;;4.35;;
50591;SDS011;36548;50.506;30.834;2022-09-09T00:30:31;7.25;;;4.87;;
50591;SDS011;36548;50.506;30.834;2022-09-09T00:31:44;8.40;;;5.25;;
50591;SDS011;36548;50.506;30.834;2022-09-09T00:33:03;6.17;;;4.90;;
50591;SDS011;36548;50.506;30.834;2022-09-09T00:34:18;5.85;;;4.72;;
50591;SDS011;36548;50.506;30.834;2022-09-09T00:35:37;5.77;;;5.12;;
50591;SDS011;36548;50.506;30.834;2022-09-09T00:36:52;6.03;;;4.92;;
50591;SDS011;36548;50.506;30.834;2022-09-09T00:39:34;5.28;;;4.73;;
50591;SDS011;36548;50.506;30.834;2022-09-09T00:40:52;7.07;;;4.77;;
50591;SDS011;36548;50.506;30.834;2022-09-09T00:43:57;6.63;;;4.82;;
50591;SDS011;36548;50.506;30.834;2022-09-09T00:45:39;5.78;;;4.78;;
50591;SDS011;36548;50.506;30.834;2022-09-09T00:47:04;5.68;;;4.43;;
50591;SDS011;36548;50.506;30.834;2022-09-09T00:50:10;7.85;;;4.80;;
50591;SDS011;36548;50.506;30.834;2022-09-09T00:51:29;9.48;;;4.70;;
50591;SDS011;36548;50.506;30.834;2022-09-09T00:54:23;5.98;;;4.85;;
50591;SDS011;36548;50.506;30.834;2022-09-09T00:55:43;6.77;;;5.18;;
50591;SDS011;36548;50.506;30.834;2022-09-09T00:57:25;6.25;;;4.90;;
50591;SDS011;36548;50.506;30.834;2022-09-09T01:01:42;6.72;;;5.05;;
50591;SDS011;36548;50.506;30.834;2022-09-09T01:04:13;6.02;;;5.03;;
50591;SDS011;36548;50.506;30.834;2022-09-09T01:06:47;6.45;;;4.75;;
50591;SDS011;36548;50.506;30.834;2022-09-09T01:08:09;5.20;;;4.58;;
50591;SDS011;36548;50.506;30.834;2022-09-09T01:09:22;5.45;;;4.70;;
50591;SDS011;36548;50.506;30.834;2022-09-09T01:10:57;6.15;;;4.80;;
50591;SDS011;36548;50.506;30.834;2022-09-09T01:13:30;6.25;;;4.45;;
50591;SDS011;36548;50.506;30.834;2022-09-09T01:14:51;5.38;;;4.23;;
50591;SDS011;36548;50.506;30.834;2022-09-09T01:16:28;6.80;;;4.70;;
50591;SDS011;36548;50.506;30.834;2022-09-09T01:18:56;7.60;;;5.30;;
50591;SDS011;36548;50.506;30.834;2022-09-09T01:20:19;5.88;;;5.02;;
50591;SDS011;36548;50.506;30.834;2022-09-09T01:21:43;6.53;;;4.98;;
50591;SDS011;36548;50.506;30.834;2022-09-09T01:24:43;5.65;;;4.70;;
50591;SDS011;36548;50.506;30.834;2022-09-09T01:28:52;5.48;;;4.28;;
50591;SDS011;36548;50.506;30.834;2022-09-09T01:30:09;6.00;;;4.30;;
50591;SDS011;36548;50.506;30.834;2022-09-09T01:32:44;5.77;;;4.65;;
50591;SDS011;36548;50.506;30.834;2022-09-09T01:33:58;5.85;;;4.73;;
50591;SDS011;36548;50.506;30.834;2022-09-09T01:35:10;5.05;;;4.55;;
50591;SDS011;36548;50.506;30.834;2022-09-09T01:38:12;4.97;;;4.35;;
50591;SDS011;36548;50.506;30.834;2022-09-09T01:39:24;5.50;;;4.75;;
50591;SDS011;36548;50.506;30.834;2022-09-09T01:40:36;5.32;;;4.77;;
50591;SDS011;36548;50.506;30.834;2022-09-09T01:41:52;6.30;;;4.88;;
50591;SDS011;36548;50.506;30.834;2022-09-09T01:43:05;6.58;;;4.88;;
50591;SDS011;36548;50.506;30.834;2022-09-09T01:44:23;7.50;;;4.60;;
50591;SDS011;36548;50.506;30.834;2022-09-09T01:45:34;7.38;;;4.98;;
50591;SDS011;36548;50.506;30.834;2022-09-09T01:46:44;5.12;;;4.63;;
50591;SDS011;36548;50.506;30.834;2022-09-09T01:47:59;5.95;;;4.10;;
50591;SDS011;36548;50.506;30.834;2022-09-09T01:49:22;6.18;;;4.80;;
50591;SDS011;36548;50.506;30.834;2022-09-09T01:50:37;6.45;;;4.67;;
50591;SDS011;36548;50.506;30.834;2022-09-09T01:51:49;5.78;;;5.15;;
50591;SDS011;36548;50.506;30.834;2022-09-09T01:54:26;5.27;;;4.08;;
50591;SDS011;36548;50.506;30.834;2022-09-09T01:55:52;5.73;;;4.90;;
50591;SDS011;36548;50.506;30.834;2022-09-09T01:59:53;6.15;;;4.63;;
50591;SDS011;36548;50.506;30.834;2022-09-09T02:03:03;6.35;;;4.60;;
50591;SDS011;36548;50.506;30.834;2022-09-09T02:04:39;6.52;;;4.93;;
50591;SDS011;36548;50.506;30.834;2022-09-09T02:07:27;7.10;;;4.93;;
50591;SDS011;36548;50.506;30.834;2022-09-09T02:08:57;5.47;;;4.58;;
50591;SDS011;36548;50.506;30.834;2022-09-09T02:10:12;6.62;;;4.68;;
50591;SDS011;36548;50.506;30.834;2022-09-09T02:11:39;5.98;;;4.82;;
50591;SDS011;36548;50.506;30.834;2022-09-09T02:13:01;5.68;;;4.95;;
50591;SDS011;36548;50.506;30.834;2022-09-09T02:14:19;6.02;;;4.83;;
50591;SDS011;36548;50.506;30.834;2022-09-09T02:15:42;5.13;;;4.48;;
50591;SDS011;36548;50.506;30.834;2022-09-09T02:16:57;5.65;;;4.95;;
50591;SDS011;36548;50.506;30.834;2022-09-09T02:18:24;5.42;;;4.87;;
50591;SDS011;36548;50.506;30.834;2022-09-09T02:19:44;7.25;;;5.45;;
50591;SDS011;36548;50.506;30.834;2022-09-09T02:21:08;8.55;;;6.28;;
50591;SDS011;36548;50.506;30.834;2022-09-09T02:22:20;8.52;;;5.55;;
50591;SDS011;36548;50.506;30.834;2022-09-09T02:23:33;6.20;;;5.55;;
50591;SDS011;36548;50.506;30.834;2022-09-09T02:24:51;5.57;;;5.00;;
50591;SDS011;36548;50.506;30.834;2022-09-09T02:26:06;6.28;;;5.08;;
50591;SDS011;36548;50.506;30.834;2022-09-09T02:27:19;7.47;;;4.60;;
50591;SDS011;36548;50.506;30.834;2022-09-09T02:28:30;6.15;;;4.95;;
50591;SDS011;36548;50.506;30.834;2022-09-09T02:29:42;6.08;;;4.65;;
50591;SDS011;36548;50.506;30.834;2022-09-09T02:31:01;5.62;;;4.88;;
50591;SDS011;36548;50.506;30.834;2022-09-09T02:32:13;5.98;;;4.68;;
50591;SDS011;36548;50.506;30.834;2022-09-09T02:33:27;6.07;;;4.57;;
50591;SDS011;36548;50.506;30.834;2022-09-09T02:34:47;5.53;;;4.62;;
50591;SDS011;36548;50.506;30.834;2022-09-09T02:35:59;5.13;;;4.63;;
50591;SDS011;36548;50.506;30.834;2022-09-09T02:37:18;5.28;;;4.78;;
50591;SDS011;36548;50.506;30.834;2022-09-09T02:38:33;6.45;;;4.70;;
50591;SDS011;36548;50.506;30.834;2022-09-09T02:39:48;5.60;;;4.62;;
50591;SDS011;36548;50.506;30.834;2022-09-09T02:41:00;7.43;;;4.85;;
50591;SDS011;36548;50.506;30.834;2022-09-09T02:42:16;5.25;;;4.72;;
50591;SDS011;36548;50.506;30.834;2022-09-09T02:43:25;6.52;;;4.40;;
50591;SDS011;36548;50.506;30.834;2022-09-09T02:44:43;7.80;;;4.85;;
50591;SDS011;36548;50.506;30.834;2022-09-09T02:45:58;5.95;;;4.55;;
50591;SDS011;36548;50.506;30.834;2022-09-09T02:51:24;5.67;;;4.52;;
50591;SDS011;36548;50.506;30.834;2022-09-09T02:54:26;5.72;;;4.42;;
50591;SDS011;36548;50.506;30.834;2022-09-09T02:55:46;5.57;;;4.85;;
50591;SDS011;36548;50.506;30.834;2022-09-09T02:58:39;6.42;;;4.95;;
50591;SDS011;36548;50.506;30.834;2022-09-09T02:59:50;5.08;;;4.60;;
50591;SDS011;36548;50.506;30.834;2022-09-09T03:01:06;5.62;;;4.45;;
50591;SDS011;36548;50.506;30.834;2022-09-09T03:02:18;5.75;;;4.40;;
50591;SDS011;36548;50.506;30.834;2022-09-09T03:03:34;4.95;;;4.45;;
50591;SDS011;36548;50.506;30.834;2022-09-09T03:04:46;5.32;;;4.38;;
50591;SDS011;36548;50.506;30.834;2022-09-09T03:06:04;6.27;;;4.83;;
50591;SDS011;36548;50.506;30.834;2022-09-09T03:07:14;5.55;;;4.30;;
50591;SDS011;36548;50.506;30.834;2022-09-09T03:08:30;5.28;;;4.66;;
50591;SDS011;36548;50.506;30.834;2022-09-09T03:09:40;8.10;;;7.34;;
50591;SDS011;36548;50.506;30.834;2022-09-09T03:10:51;11.45;;;10.30;;
50591;SDS011;36548;50.506;30.834;2022-09-09T03:12:08;14.15;;;10.40;;
50591;SDS011;36548;50.506;30.834;2022-09-09T03:13:19;13.08;;;7.95;;
50591;SDS011;36548;50.506;30.834;2022-09-09T03:14:35;8.02;;;5.95;;
50591;SDS011;36548;50.506;30.834;2022-09-09T03:15:43;7.62;;;5.37;;
50591;SDS011;36548;50.506;30.834;2022-09-09T03:16:59;6.02;;;5.07;;
50591;SDS011;36548;50.506;30.834;2022-09-09T03:18:12;6.65;;;4.68;;
50591;SDS011;36548;50.506;30.834;2022-09-09T03:19:22;5.68;;;4.65;;
50591;SDS011;36548;50.506;30.834;2022-09-09T03:20:32;5.95;;;4.67;;
50591;SDS011;36548;50.506;30.834;2022-09-09T03:21:43;5.10;;;4.45;;
50591;SDS011;36548;50.506;30.834;2022-09-09T03:22:53;5.80;;;4.80;;
50591;SDS011;36548;50.506;30.834;2022-09-09T03:24:02;8.15;;;4.50;;
50591;SDS011;36548;50.506;30.834;2022-09-09T03:25:12;5.50;;;4.35;;
50591;SDS011;36548;50.506;30.834;2022-09-09T03:26:25;5.25;;;4.55;;
50591;SDS011;36548;50.506;30.834;2022-09-09T03:27:34;5.13;;;4.72;;
50591;SDS011;36548;50.506;30.834;2022-09-09T03:28:44;6.83;;;4.95;;
50591;SDS011;36548;50.506;30.834;2022-09-09T03:29:59;4.92;;;4.42;;
50591;SDS011;36548;50.506;30.834;2022-09-09T03:31:12;5.55;;;4.40;;
50591;SDS011;36548;50.506;30.834;2022-09-09T03:32:22;5.27;;;4.75;;
50591;SDS011;36548;50.506;30.834;2022-09-09T03:33:40;5.60;;;5.10;;
50591;SDS011;36548;50.506;30.834;2022-09-09T03:34:51;5.35;;;4.73;;
50591;SDS011;36548;50.506;30.834;2022-09-09T03:36:01;4.98;;;4.48;;
50591;SDS011;36548;50.506;30.834;2022-09-09T03:37:11;5.72;;;4.87;;
50591;SDS011;36548;50.506;30.834;2022-09-09T03:38:27;7.73;;;5.48;;
50591;SDS011;36548;50.506;30.834;2022-09-09T03:39:39;6.98;;;5.33;;
50591;SDS011;36548;50.506;30.834;2022-09-09T03:40:56;6.33;;;5.18;;
50591;SDS011;36548;50.506;30.834;2022-09-09T03:42:13;5.47;;;4.57;;
50591;SDS011;36548;50.506;30.834;2022-09-09T03:43:24;5.20;;;4.68;;
50591;SDS011;36548;50.506;30.834;2022-09-09T03:44:34;5.75;;;4.75;;
50591;SDS011;36548;50.506;30.834;2022-09-09T03:45:47;7.28;;;5.42;;
50591;SDS011;36548;50.506;30.834;2022-09-09T03:46:58;5.33;;;4.73;;
50591;SDS011;36548;50.506;30.834;2022-09-09T03:48:09;5.22;;;4.72;;
50591;SDS011;36548;50.506;30.834;2022-09-09T03:50:32;5.23;;;4.57;;
50591;SDS011;36548;50.506;30.834;2022-09-09T03:51:41;6.90;;;5.78;;
50591;SDS011;36548;50.506;30.834;2022-09-09T03:52:57;6.65;;;4.90;;
50591;SDS011;36548;50.506;30.834;2022-09-09T03:54:06;6.22;;;4.63;;
50591;SDS011;36548;50.506;30.834;2022-09-09T03:55:24;6.72;;;4.98;;
50591;SDS011;36548;50.506;30.834;2022-09-09T03:56:34;6.03;;;5.05;;
50591;SDS011;36548;50.506;30.834;2022-09-09T03:57:50;5.85;;;4.70;;
50591;SDS011;36548;50.506;30.834;2022-09-09T03:59:00;6.00;;;4.77;;
50591;SDS011;36548;50.506;30.834;2022-09-09T04:00:11;6.12;;;4.92;;
50591;SDS011;36548;50.506;30.834;2022-09-09T04:01:26;6.50;;;5.35;;
50591;SDS011;36548;50.506;30.834;2022-09-09T04:02:36;6.20;;;4.97;;
50591;SDS011;36548;50.506;30.834;2022-09-09T04:03:51;6.42;;;4.87;;
50591;SDS011;36548;50.506;30.834;2022-09-09T04:06:35;5.27;;;4.77;;
50591;SDS011;36548;50.506;30.834;2022-09-09T04:07:45;5.77;;;4.77;;
50591;SDS011;36548;50.506;30.834;2022-09-09T04:08:54;5.30;;;4.68;;
50591;SDS011;36548;50.506;30.834;2022-09-09T04:10:06;5.22;;;4.72;;
50591;SDS011;36548;50.506;30.834;2022-09-09T04:11:17;6.90;;;5.12;;
50591;SDS011;36548;50.506;30.834;2022-09-09T04:12:33;6.85;;;4.45;;
50591;SDS011;36548;50.506;30.834;2022-09-09T04:13:42;5.32;;;4.43;;
50591;SDS011;36548;50.506;30.834;2022-09-09T04:14:58;5.83;;;4.92;;
50591;SDS011;36548;50.506;30.834;2022-09-09T04:16:09;6.80;;;4.63;;
50591;SDS011;36548;50.506;30.834;2022-09-09T04:17:25;6.15;;;5.05;;
50591;SDS011;36548;50.506;30.834;2022-09-09T04:18:34;5.20;;;4.37;;
50591;SDS011;36548;50.506;30.834;2022-09-09T04:19:44;5.90;;;5.00;;
50591;SDS011;36548;50.506;30.834;2022-09-09T04:20:55;6.00;;;4.62;;
50591;SDS011;36548;50.506;30.834;2022-09-09T04:22:08;6.25;;;5.17;;
50591;SDS011;36548;50.506;30.834;2022-09-09T04:23:18;6.25;;;4.75;;
50591;SDS011;36548;50.506;30.834;2022-09-09T04:24:30;6.00;;;4.60;;
50591;SDS011;36548;50.506;30.834;2022-09-09T04:25:46;6.85;;;4.65;;
50591;SDS011;36548;50.506;30.834;2022-09-09T04:27:03;5.67;;;4.35;;
50591;SDS011;36548;50.506;30.834;2022-09-09T04:28:14;6.28;;;4.87;;
50591;SDS011;36548;50.506;30.834;2022-09-09T04:29:31;6.22;;;4.48;;
50591;SDS011;36548;50.506;30.834;2022-09-09T04:30:41;6.35;;;4.20;;
50591;SDS011;36548;50.506;30.834;2022-09-09T04:31:53;4.42;;;3.85;;
50591;SDS011;36548;50.506;30.834;2022-09-09T04:33:03;5.20;;;4.40;;
50591;SDS011;36548;50.506;30.834;2022-09-09T04:34:19;6.17;;;4.75;;
50591;SDS011;36548;50.506;30.834;2022-09-09T04:35:29;4.95;;;4.38;;
50591;SDS011;36548;50.506;30.834;2022-09-09T04:36:39;5.12;;;4.32;;
50591;SDS011;36548;50.506;30.834;2022-09-09T04:37:58;5.65;;;4.17;;
50591;SDS011;36548;50.506;30.834;2022-09-09T04:39:09;4.90;;;4.10;;
50591;SDS011;36548;50.506;30.834;2022-09-09T04:40:21;5.00;;;4.33;;
50591;SDS011;36548;50.506;30.834;2022-09-09T04:41:36;6.20;;;4.13;;
50591;SDS011;36548;50.506;30.834;2022-09-09T04:42:47;8.53;;;4.38;;
50591;SDS011;36548;50.506;30.834;2022-09-09T04:44:00;9.10;;;4.47;;
50591;SDS011;36548;50.506;30.834;2022-09-09T04:45:16;8.55;;;4.45;;
50591;SDS011;36548;50.506;30.834;2022-09-09T04:46:28;5.28;;;4.38;;
50591;SDS011;36548;50.506;30.834;2022-09-09T04:48:03;9.48;;;4.80;;
50591;SDS011;36548;50.506;30.834;2022-09-09T04:49:12;5.07;;;4.38;;
50591;SDS011;36548;50.506;30.834;2022-09-09T04:50:27;5.13;;;4.38;;
50591;SDS011;36548;50.506;30.834;2022-09-09T04:51:39;5.75;;;4.83;;
50591;SDS011;36548;50.506;30.834;2022-09-09T04:52:50;7.10;;;4.58;;
50591;SDS011;36548;50.506;30.834;2022-09-09T04:54:00;5.80;;;4.43;;
50591;SDS011;36548;50.506;30.834;2022-09-09T04:55:10;6.35;;;4.80;;
50591;SDS011;36548;50.506;30.834;2022-09-09T04:56:25;7.97;;;4.62;;
50591;SDS011;36548;50.506;30.834;2022-09-09T05:00:14;5.45;;;4.30;;
50591;SDS011;36548;50.506;30.834;2022-09-09T05:01:31;6.57;;;4.15;;
50591;SDS011;36548;50.506;30.834;2022-09-09T05:02:43;8.20;;;4.70;;
50591;SDS011;36548;50.506;30.834;2022-09-09T05:04:18;5.70;;;4.50;;
50591;SDS011;36548;50.506;30.834;2022-09-09T05:05:28;5.18;;;4.45;;
50591;SDS011;36548;50.506;30.834;2022-09-09T05:07:48;7.12;;;4.75;;
50591;SDS011;36548;50.506;30.834;2022-09-09T05:08:58;7.20;;;4.83;;
50591;SDS011;36548;50.506;30.834;2022-09-09T05:10:14;6.84;;;4.50;;
50591;SDS011;36548;50.506;30.834;2022-09-09T05:11:26;5.45;;;4.25;;
50591;SDS011;36548;50.506;30.834;2022-09-09T05:12:51;5.83;;;4.55;;
50591;SDS011;36548;50.506;30.834;2022-09-09T05:13:56;5.20;;;4.30;;
50591;SDS011;36548;50.506;30.834;2022-09-09T05:15:06;4.80;;;4.00;;
50591;SDS011;36548;50.506;30.834;2022-09-09T05:16:23;6.57;;;4.97;;
50591;SDS011;36548;50.506;30.834;2022-09-09T05:17:33;4.97;;;4.42;;
50591;SDS011;36548;50.506;30.834;2022-09-09T05:18:42;5.00;;;3.98;;
50591;SDS011;36548;50.506;30.834;2022-09-09T05:19:58;7.23;;;4.58;;
50591;SDS011;36548;50.506;30.834;2022-09-09T05:21:07;8.20;;;4.62;;
50591;SDS011;36548;50.506;30.834;2022-09-09T05:22:22;5.32;;;4.42;;
50591;SDS011;36548;50.506;30.834;2022-09-09T05:23:32;8.15;;;4.15;;
50591;SDS011;36548;50.506;30.834;2022-09-09T05:24:42;6.67;;;4.43;;
50591;SDS011;36548;50.506;30.834;2022-09-09T05:25:57;5.37;;;4.70;;
50591;SDS011;36548;50.506;30.834;2022-09-09T05:27:07;6.43;;;4.47;;
50591;SDS011;36548;50.506;30.834;2022-09-09T05:28:24;4.50;;;3.83;;
50591;SDS011;36548;50.506;30.834;2022-09-09T05:29:34;5.45;;;4.35;;
50591;SDS011;36548;50.506;30.834;2022-09-09T05:30:45;8.05;;;4.52;;
50591;SDS011;36548;50.506;30.834;2022-09-09T05:32:00;8.07;;;4.38;;
50591;SDS011;36548;50.506;30.834;2022-09-09T05:33:10;6.80;;;4.40;;
50591;SDS011;36548;50.506;30.834;2022-09-09T05:34:21;6.65;;;4.20;;
50591;SDS011;36548;50.506;30.834;2022-09-09T05:35:31;9.60;;;4.10;;
50591;SDS011;36548;50.506;30.834;2022-09-09T05:36:42;5.32;;;3.97;;
50591;SDS011;36548;50.506;30.834;2022-09-09T05:37:51;5.50;;;3.73;;
50591;SDS011;36548;50.506;30.834;2022-09-09T05:39:00;4.17;;;3.47;;
50591;SDS011;36548;50.506;30.834;2022-09-09T05:40:16;4.77;;;3.38;;
50591;SDS011;36548;50.506;30.834;2022-09-09T05:41:26;4.57;;;3.42;;
50591;SDS011;36548;50.506;30.834;2022-09-09T05:42:43;4.52;;;3.48;;
50591;SDS011;36548;50.506;30.834;2022-09-09T05:43:53;4.43;;;3.32;;
50591;SDS011;36548;50.506;30.834;2022-09-09T05:45:28;5.50;;;3.47;;
50591;SDS011;36548;50.506;30.834;2022-09-09T05:46:37;5.40;;;3.70;;
50591;SDS011;36548;50.506;30.834;2022-09-09T05:47:52;4.33;;;3.43;;
50591;SDS011;36548;50.506;30.834;2022-09-09T05:49:02;4.65;;;3.85;;
50591;SDS011;36548;50.506;30.834;2022-09-09T05:50:12;4.77;;;3.60;;
50591;SDS011;36548;50.506;30.834;2022-09-09T05:51:26;5.00;;;3.60;;
50591;SDS011;36548;50.506;30.834;2022-09-09T05:52:41;6.00;;;3.75;;
50591;SDS011;36548;50.506;30.834;2022-09-09T05:53:50;5.63;;;3.40;;
50591;SDS011;36548;50.506;30.834;2022-09-09T05:55:06;5.78;;;5.22;;
50591;SDS011;36548;50.506;30.834;2022-09-09T05:56:21;8.20;;;6.88;;
50591;SDS011;36548;50.506;30.834;2022-09-09T05:57:39;25.00;;;20.40;;
50591;SDS011;36548;50.506;30.834;2022-09-09T05:58:49;56.85;;;50.50;;
50591;SDS011;36548;50.506;30.834;2022-09-09T06:00:06;19.72;;;17.68;;
50591;SDS011;36548;50.506;30.834;2022-09-09T06:01:23;9.23;;;6.88;;
50591;SDS011;36548;50.506;30.834;2022-09-09T06:02:36;7.27;;;5.58;;
50591;SDS011;36548;50.506;30.834;2022-09-09T06:03:47;7.18;;;4.93;;
50591;SDS011;36548;50.506;30.834;2022-09-09T06:05:04;5.65;;;4.40;;
50591;SDS011;36548;50.506;30.834;2022-09-09T06:06:22;4.47;;;3.48;;
50591;SDS011;36548;50.506;30.834;2022-09-09T06:07:46;4.90;;;4.03;;
50591;SDS011;36548;50.506;30.834;2022-09-09T06:08:56;4.95;;;4.00;;
50591;SDS011;36548;50.506;30.834;2022-09-09T06:10:07;12.13;;;3.77;;
50591;SDS011;36548;50.506;30.834;2022-09-09T06:11:26;5.25;;;3.28;;
50591;SDS011;36548;50.506;30.834;2022-09-09T06:12:40;3.98;;;2.98;;
50591;SDS011;36548;50.506;30.834;2022-09-09T06:13:56;3.60;;;3.27;;
50591;SDS011;36548;50.506;30.834;2022-09-09T06:15:07;4.62;;;3.20;;
50591;SDS011;36548;50.506;30.834;2022-09-09T06:16:24;5.72;;;4.28;;
50591;SDS011;36548;50.506;30.834;2022-09-09T06:17:36;5.65;;;3.62;;
50591;SDS011;36548;50.506;30.834;2022-09-09T06:18:51;4.15;;;3.35;;
50591;SDS011;36548;50.506;30.834;2022-09-09T06:20:02;5.48;;;3.35;;
50591;SDS011;36548;50.506;30.834;2022-09-09T06:21:23;4.92;;;3.78;;
50591;SDS011;36548;50.506;30.834;2022-09-09T06:22:40;4.92;;;3.67;;
50591;SDS011;36548;50.506;30.834;2022-09-09T06:23:49;4.63;;;3.10;;
50591;SDS011;36548;50.506;30.834;2022-09-09T06:25:06;4.62;;;3.80;;
50591;SDS011;36548;50.506;30.834;2022-09-09T06:26:26;4.47;;;3.60;;
50591;SDS011;36548;50.506;30.834;2022-09-09T06:27:48;4.53;;;3.70;;
50591;SDS011;36548;50.506;30.834;2022-09-09T06:29:05;4.28;;;3.57;;
50591;SDS011;36548;50.506;30.834;2022-09-09T06:30:14;7.60;;;3.90;;
50591;SDS011;36548;50.506;30.834;2022-09-09T06:31:26;5.43;;;3.83;;
50591;SDS011;36548;50.506;30.834;2022-09-09T06:32:41;4.42;;;3.30;;
50591;SDS011;36548;50.506;30.834;2022-09-09T06:33:52;5.65;;;3.80;;
50591;SDS011;36548;50.506;30.834;2022-09-09T06:35:10;7.85;;;4.63;;
50591;SDS011;36548;50.506;30.834;2022-09-09T06:36:21;6.80;;;5.65;;
50591;SDS011;36548;50.506;30.834;2022-09-09T06:37:40;4.50;;;3.58;;
50591;SDS011;36548;50.506;30.834;2022-09-09T06:38:53;5.15;;;4.58;;
50591;SDS011;36548;50.506;30.834;2022-09-09T06:40:10;5.72;;;4.22;;
50591;SDS011;36548;50.506;30.834;2022-09-09T06:41:21;5.22;;;3.73;;
50591;SDS011;36548;50.506;30.834;2022-09-09T06:42:40;4.70;;;3.53;;
50591;SDS011;36548;50.506;30.834;2022-09-09T06:44:07;3.67;;;3.32;;
50591;SDS011;36548;50.506;30.834;2022-09-09T06:45:22;5.05;;;3.38;;
50591;SDS011;36548;50.506;30.834;2022-09-09T06:46:35;4.35;;;3.25;;
50591;SDS011;36548;50.506;30.834;2022-09-09T06:47:45;4.05;;;3.60;;
50591;SDS011;36548;50.506;30.834;2022-09-09T06:49:20;4.20;;;3.25;;
50591;SDS011;36548;50.506;30.834;2022-09-09T06:50:31;2.88;;;2.67;;
50591;SDS011;36548;50.506;30.834;2022-09-09T06:51:41;4.60;;;2.85;;
50591;SDS011;36548;50.506;30.834;2022-09-09T06:52:53;4.38;;;2.88;;
50591;SDS011;36548;50.506;30.834;2022-09-09T06:54:08;4.18;;;2.97;;
50591;SDS011;36548;50.506;30.834;2022-09-09T06:55:19;4.67;;;2.75;;
50591;SDS011;36548;50.506;30.834;2022-09-09T06:56:36;5.15;;;2.35;;
50591;SDS011;36548;50.506;30.834;2022-09-09T06:57:51;3.85;;;2.62;;
50591;SDS011;36548;50.506;30.834;2022-09-09T06:59:07;6.15;;;2.77;;
50591;SDS011;36548;50.506;30.834;2022-09-09T07:00:19;3.23;;;2.28;;
50591;SDS011;36548;50.506;30.834;2022-09-09T07:01:28;2.28;;;1.82;;
50591;SDS011;36548;50.506;30.834;2022-09-09T07:02:46;4.63;;;2.40;;
50591;SDS011;36548;50.506;30.834;2022-09-09T07:03:56;3.20;;;2.70;;
50591;SDS011;36548;50.506;30.834;2022-09-09T07:05:16;5.04;;;2.82;;
50591;SDS011;36548;50.506;30.834;2022-09-09T07:06:29;2.62;;;2.42;;
50591;SDS011;36548;50.506;30.834;2022-09-09T07:07:43;5.20;;;2.62;;
50591;SDS011;36548;50.506;30.834;2022-09-09T07:08:54;4.95;;;2.65;;
50591;SDS011;36548;50.506;30.834;2022-09-09T07:10:12;3.93;;;2.68;;
50591;SDS011;36548;50.506;30.834;2022-09-09T07:11:22;3.12;;;2.32;;
50591;SDS011;36548;50.506;30.834;2022-09-09T07:12:36;4.05;;;2.80;;
50591;SDS011;36548;50.506;30.834;2022-09-09T07:13:54;4.43;;;2.63;;
50591;SDS011;36548;50.506;30.834;2022-09-09T07:15:05;3.67;;;2.52;;
50591;SDS011;36548;50.506;30.834;2022-09-09T07:16:22;5.82;;;2.50;;
50591;SDS011;36548;50.506;30.834;2022-09-09T07:17:32;2.48;;;2.28;;
50591;SDS011;36548;50.506;30.834;2022-09-09T07:18:47;2.57;;;2.02;;
50591;SDS011;36548;50.506;30.834;2022-09-09T07:19:58;4.78;;;1.95;;
50591;SDS011;36548;50.506;30.834;2022-09-09T07:21:14;3.25;;;2.05;;
50591;SDS011;36548;50.506;30.834;2022-09-09T07:22:24;2.93;;;1.83;;
50591;SDS011;36548;50.506;30.834;2022-09-09T07:23:33;2.55;;;1.70;;
50591;SDS011;36548;50.506;30.834;2022-09-09T07:24:45;2.37;;;1.93;;
50591;SDS011;36548;50.506;30.834;2022-09-09T07:25:55;2.98;;;2.13;;
50591;SDS011;36548;50.506;30.834;2022-09-09T07:27:05;4.08;;;1.83;;
50591;SDS011;36548;50.506;30.834;2022-09-09T07:28:20;4.08;;;2.02;;
50591;SDS011;36548;50.506;30.834;2022-09-09T07:29:31;2.63;;;2.00;;
50591;SDS011;36548;50.506;30.834;2022-09-09T07:30:55;4.22;;;2.47;;
50591;SDS011;36548;50.506;30.834;2022-09-09T07:32:06;4.65;;;2.30;;
50591;SDS011;36548;50.506;30.834;2022-09-09T07:33:21;2.70;;;1.97;;
50591;SDS011;36548;50.506;30.834;2022-09-09T07:34:30;3.17;;;2.33;;
50591;SDS011;36548;50.506;30.834;2022-09-09T07:35:45;3.95;;;2.62;;
50591;SDS011;36548;50.506;30.834;2022-09-09T07:36:54;3.28;;;2.38;;
50591;SDS011;36548;50.506;30.834;2022-09-09T07:38:11;4.50;;;2.27;;
50591;SDS011;36548;50.506;30.834;2022-09-09T07:39:21;6.28;;;1.88;;
50591;SDS011;36548;50.506;30.834;2022-09-09T07:40:36;3.20;;;1.68;;
50591;SDS011;36548;50.506;30.834;2022-09-09T07:41:46;2.98;;;1.70;;
50591;SDS011;36548;50.506;30.834;2022-09-09T07:42:58;4.40;;;3.35;;
50591;SDS011;36548;50.506;30.834;2022-09-09T07:44:09;2.77;;;1.13;;
50591;SDS011;36548;50.506;30.834;2022-09-09T07:45:21;2.23;;;1.33;;
50591;SDS011;36548;50.506;30.834;2022-09-09T07:46:37;1.72;;;1.22;;
50591;SDS011;36548;50.506;30.834;2022-09-09T07:47:51;2.30;;;1.27;;
50591;SDS011;36548;50.506;30.834;2022-09-09T07:49:01;2.10;;;0.78;;
50591;SDS011;36548;50.506;30.834;2022-09-09T07:50:18;2.68;;;1.40;;
50591;SDS011;36548;50.506;30.834;2022-09-09T07:51:31;3.48;;;1.08;;
50591;SDS011;36548;50.506;30.834;2022-09-09T07:52:42;4.20;;;1.35;;
50591;SDS011;36548;50.506;30.834;2022-09-09T07:53:53;3.92;;;1.63;;
50591;SDS011;36548;50.506;30.834;2022-09-09T07:55:05;3.17;;;1.65;;
50591;SDS011;36548;50.506;30.834;2022-09-09T07:56:16;1.78;;;1.18;;
50591;SDS011;36548;50.506;30.834;2022-09-09T07:57:26;3.37;;;1.20;;
50591;SDS011;36548;50.506;30.834;2022-09-09T07:58:54;1.95;;;0.60;;
50591;SDS011;36548;50.506;30.834;2022-09-09T08:00:07;1.37;;;0.60;;
50591;SDS011;36548;50.506;30.834;2022-09-09T08:01:29;0.98;;;0.92;;
50591;SDS011;36548;50.506;30.834;2022-09-09T08:02:40;2.77;;;1.10;;
50591;SDS011;36548;50.506;30.834;2022-09-09T08:03:57;1.67;;;1.05;;
50591;SDS011;36548;50.506;30.834;2022-09-09T08:05:10;1.12;;;0.87;;
50591;SDS011;36548;50.506;30.834;2022-09-09T08:06:26;3.07;;;1.00;;
50591;SDS011;36548;50.506;30.834;2022-09-09T08:07:35;3.02;;;1.00;;
50591;SDS011;36548;50.506;30.834;2022-09-09T08:08:50;2.58;;;1.10;;
50591;SDS011;36548;50.506;30.834;2022-09-09T08:10:02;3.48;;;1.10;;
50591;SDS011;36548;50.506;30.834;2022-09-09T08:11:13;1.45;;;1.00;;
50591;SDS011;36548;50.506;30.834;2022-09-09T08:12:25;2.30;;;1.05;;
50591;SDS011;36548;50.506;30.834;2022-09-09T08:13:42;2.80;;;1.22;;
50591;SDS011;36548;50.506;30.834;2022-09-09T08:14:51;2.07;;;1.00;;
50591;SDS011;36548;50.506;30.834;2022-09-09T08:16:09;3.72;;;0.80;;
50591;SDS011;36548;50.506;30.834;2022-09-09T08:17:27;3.00;;;1.13;;
50591;SDS011;36548;50.506;30.834;2022-09-09T08:18:38;2.08;;;1.05;;
50591;SDS011;36548;50.506;30.834;2022-09-09T08:19:54;2.92;;;1.03;;
50591;SDS011;36548;50.506;30.834;2022-09-09T08:21:09;3.23;;;1.30;;
50591;SDS011;36548;50.506;30.834;2022-09-09T08:22:24;1.65;;;1.23;;